createdAt,value
2022-08-25T00:00:23.280Z,6.22
2022-08-25T00:03:25.630Z,5.20
2022-08-25T00:06:28.734Z,7.03
2022-08-25T00:09:32.699Z,5.60
2022-08-25T00:12:34.400Z,6.05
2022-08-25T00:15:36.722Z,6.93
2022-08-25T00:18:39.914Z,5.63
2022-08-25T00:21:43.728Z,5.72
2022-08-25T00:24:45.800Z,6.38
2022-08-25T00:27:48.574Z,7.30
2022-08-25T00:30:50.337Z,6.60
2022-08-25T00:33:53.841Z,5.63
2022-08-25T00:36:55.823Z,5.95
2022-08-25T00:39:58.693Z,7.72
2022-08-25T00:43:00.604Z,7.05
2022-08-25T00:46:02.994Z,7.28
2022-08-25T00:49:36.341Z,8.27
2022-08-25T00:52:42.447Z,6.32
2022-08-25T00:55:44.300Z,7.65
2022-08-25T00:58:46.218Z,6.50
2022-08-25T01:01:49.402Z,7.25
2022-08-25T01:04:51.196Z,8.77
2022-08-25T01:07:58.650Z,7.35
2022-08-25T01:11:04.958Z,6.65
2022-08-25T01:14:07.488Z,7.43
2022-08-25T01:17:09.611Z,6.57
2022-08-25T01:20:11.531Z,5.90
2022-08-25T01:23:13.139Z,6.75
2022-08-25T01:26:25.093Z,8.30
2022-08-25T01:29:33.357Z,7.22
2022-08-25T01:32:35.170Z,7.13
2022-08-25T01:35:37.798Z,7.20
2022-08-25T01:38:39.673Z,7.32
2022-08-25T01:41:41.342Z,6.45
2022-08-25T01:44:45.222Z,7.03
2022-08-25T01:47:46.828Z,7.18
2022-08-25T01:50:49.917Z,6.75
2022-08-25T01:53:51.696Z,7.10
2022-08-25T01:56:53.314Z,8.63
2022-08-25T01:59:54.933Z,9.00
2022-08-25T02:02:57.546Z,7.75
2022-08-25T02:06:01.410Z,9.82
2022-08-25T02:09:10.044Z,6.80
2022-08-25T02:12:12.261Z,7.00
2022-08-25T02:15:14.497Z,9.00
2022-08-25T02:18:17.408Z,6.80
2022-08-25T02:21:19.076Z,6.38
2022-08-25T02:24:20.975Z,8.38
2022-08-25T02:27:23.430Z,6.35
2022-08-25T02:30:25.575Z,7.47
2022-08-25T02:33:27.263Z,7.70
2022-08-25T02:36:29.942Z,7.75
2022-08-25T02:39:31.624Z,7.85
2022-08-25T02:42:33.611Z,8.90
2022-08-25T02:45:36.746Z,8.35
2022-08-25T02:48:39.750Z,7.18
2022-08-25T02:51:41.406Z,7.55
2022-08-25T02:54:43.019Z,7.10
2022-08-25T02:57:44.878Z,6.78
2022-08-25T03:00:47.486Z,8.63
2022-08-25T03:03:49.769Z,9.02
2022-08-25T03:06:51.470Z,7.53
2022-08-25T03:09:54.267Z,7.60
2022-08-25T03:12:56.268Z,8.02
2022-08-25T03:15:59.567Z,7.88
2022-08-25T03:19:01.535Z,7.53
2022-08-25T03:22:04.595Z,9.20
2022-08-25T03:25:25.321Z,8.00
2022-08-25T03:28:29.910Z,9.95
2022-08-25T03:31:33.625Z,8.57
2022-08-25T03:34:35.803Z,9.85
2022-08-25T03:37:37.915Z,8.35
2022-08-25T03:40:39.596Z,10.43
2022-08-25T03:43:41.897Z,11.10
2022-08-25T03:46:48.773Z,7.47
2022-08-25T03:49:51.723Z,10.57
2022-08-25T03:52:56.281Z,9.93
2022-08-25T03:55:57.935Z,8.73
2022-08-25T03:59:00.097Z,8.45
2022-08-25T04:02:02.807Z,8.55
2022-08-25T04:05:04.848Z,8.70
2022-08-25T04:08:07.228Z,8.77
2022-08-25T04:11:13.137Z,8.90
2022-08-25T04:14:16.537Z,9.43
2022-08-25T04:17:18.565Z,10.73
2022-08-25T04:20:20.231Z,9.30
2022-08-25T04:23:21.850Z,8.40
2022-08-25T04:26:29.796Z,11.68
2022-08-25T04:29:31.465Z,8.55
2022-08-25T04:32:35.274Z,12.52
2022-08-25T04:35:36.987Z,11.32
2022-08-25T04:38:41.597Z,10.30
2022-08-25T04:41:43.880Z,11.32
2022-08-25T04:44:45.558Z,10.50
2022-08-25T04:47:49.646Z,11.05
2022-08-25T04:50:53.401Z,9.18
2022-08-25T04:54:01.135Z,9.88
2022-08-25T04:57:02.818Z,9.73
2022-08-25T05:00:05.747Z,11.65
2022-08-25T05:03:08.405Z,10.70
2022-08-25T05:06:15.287Z,13.90
2022-08-25T05:09:19.884Z,15.32
2022-08-25T05:12:23.520Z,12.80
2022-08-25T05:15:45.186Z,13.77
2022-08-25T05:18:48.535Z,13.93
2022-08-25T05:21:50.431Z,11.82
2022-08-25T05:24:52.163Z,12.55
2022-08-25T05:27:53.881Z,13.07
2022-08-25T05:31:00.002Z,14.65
2022-08-25T05:34:06.349Z,16.10
2022-08-25T05:37:11.972Z,15.52
2022-08-25T05:40:14.308Z,13.02
2022-08-25T05:43:16.013Z,13.02
2022-08-25T05:46:19.601Z,13.32
2022-08-25T05:49:21.410Z,12.15
2022-08-25T05:52:23.204Z,9.70
2022-08-25T05:55:24.837Z,12.40
2022-08-25T05:58:28.459Z,13.82
2022-08-25T06:01:48.701Z,12.45
2022-08-25T06:04:50.324Z,11.13
2022-08-25T06:07:52.352Z,11.40
2022-08-25T06:10:54.036Z,11.38
2022-08-25T06:13:55.618Z,14.38
2022-08-25T06:16:57.309Z,11.45
2022-08-25T06:19:59.153Z,13.98
2022-08-25T06:23:01.672Z,12.80
2022-08-25T06:26:03.580Z,11.82
2022-08-25T06:29:05.270Z,13.02
2022-08-25T06:32:07.041Z,13.75
2022-08-25T06:35:13.006Z,11.18
2022-08-25T06:38:14.922Z,14.85
2022-08-25T06:41:16.707Z,14.90
2022-08-25T06:44:18.581Z,12.27
2022-08-25T06:47:20.678Z,14.98
2022-08-25T06:50:22.431Z,14.63
2022-08-25T06:53:24.070Z,12.65
2022-08-25T06:56:26.634Z,12.60
2022-08-25T06:59:32.265Z,10.68
2022-08-25T07:02:35.327Z,11.00
2022-08-25T07:05:44.406Z,12.45
2022-08-25T07:08:47.395Z,15.48
2022-08-25T07:11:49.051Z,11.73
2022-08-25T07:15:10.096Z,14.02
2022-08-25T07:18:13.368Z,12.95
2022-08-25T07:21:15.560Z,12.68
2022-08-25T07:24:18.343Z,10.88
2022-08-25T07:27:20.540Z,14.18
2022-08-25T07:30:23.369Z,13.18
2022-08-25T07:33:25.316Z,11.52
2022-08-25T07:36:28.284Z,14.88
2022-08-25T07:39:30.758Z,12.25
2022-08-25T07:42:33.800Z,13.65
2022-08-25T07:45:48.141Z,13.30
2022-08-25T07:48:53.310Z,12.52
2022-08-25T07:52:05.661Z,14.15
2022-08-25T07:55:11.086Z,11.45
2022-08-25T07:58:13.291Z,16.65
2022-08-25T08:01:20.228Z,14.35
2022-08-25T08:04:22.343Z,16.30
2022-08-25T08:07:42.147Z,15.98
2022-08-25T08:11:04.356Z,13.52
2022-08-25T08:14:08.403Z,16.25
2022-08-25T08:17:11.234Z,16.80
2022-08-25T08:20:13.532Z,11.55
2022-08-25T08:23:17.559Z,14.07
2022-08-25T08:26:20.620Z,11.88
2022-08-25T08:29:23.192Z,15.82
2022-08-25T08:32:31.463Z,14.73
2022-08-25T08:35:37.212Z,16.83
2022-08-25T08:38:41.604Z,13.27
2022-08-25T08:42:13.128Z,10.30
2022-08-25T08:45:27.119Z,14.90
2022-08-25T08:48:44.790Z,11.02
2022-08-25T08:51:56.310Z,15.68
2022-08-25T08:55:02.940Z,14.27
2022-08-25T08:58:46.823Z,11.77
2022-08-25T09:02:03.885Z,14.63
2022-08-25T09:05:14.886Z,14.23
2022-08-25T09:08:20.416Z,12.43
2022-08-25T09:11:40.983Z,14.90
2022-08-25T09:14:42.617Z,12.23
2022-08-25T09:18:18.701Z,11.77
2022-08-25T09:21:36.270Z,13.10
2022-08-25T09:24:37.893Z,11.37
2022-08-25T09:27:44.253Z,13.88
2022-08-25T09:30:57.707Z,13.20
2022-08-25T09:34:03.684Z,14.07
2022-08-25T09:37:05.817Z,12.73
2022-08-25T09:40:12.189Z,13.80
2022-08-25T09:43:29.855Z,16.10
2022-08-25T09:46:31.765Z,15.45
2022-08-25T09:50:04.538Z,13.43
2022-08-25T09:53:14.786Z,12.38
2022-08-25T09:56:23.404Z,13.15
2022-08-25T09:59:35.738Z,14.63
2022-08-25T10:02:38.472Z,13.15
2022-08-25T10:05:49.354Z,10.73
2022-08-25T10:09:02.046Z,12.23
2022-08-25T10:12:27.963Z,13.32
2022-08-25T10:15:37.876Z,13.38
2022-08-25T10:18:39.820Z,12.45
2022-08-25T10:21:44.728Z,15.63
2022-08-25T10:24:46.601Z,13.27
2022-08-25T10:28:15.927Z,11.48
2022-08-25T10:31:45.243Z,13.32
2022-08-25T10:34:54.861Z,14.95
2022-08-25T10:38:02.731Z,13.90
2022-08-25T10:41:23.233Z,12.63
2022-08-25T10:44:58.748Z,14.18
2022-08-25T10:48:15.640Z,17.15
2022-08-25T10:51:43.211Z,15.27
2022-08-25T10:54:59.237Z,10.88
2022-08-25T10:58:30.808Z,17.05
2022-08-25T11:02:02.742Z,13.45
2022-08-25T11:05:12.739Z,13.68
2022-08-25T11:08:23.060Z,13.68
2022-08-25T11:11:36.973Z,11.60
2022-08-25T11:14:56.224Z,14.00
2022-08-25T11:18:17.105Z,14.40
2022-08-25T11:21:26.179Z,16.25
2022-08-25T11:24:54.093Z,12.70
2022-08-25T11:28:16.374Z,16.63
2022-08-25T11:31:20.088Z,14.15
2022-08-25T11:34:22.739Z,13.32
2022-08-25T11:37:30.702Z,13.50
2022-08-25T11:40:50.087Z,10.38
2022-08-25T11:44:54.033Z,12.40
2022-08-25T11:48:26.910Z,17.08
2022-08-25T11:51:33.920Z,13.98
2022-08-25T11:54:44.581Z,12.57
2022-08-25T11:57:53.409Z,15.80
2022-08-25T12:00:58.564Z,11.70
2022-08-25T12:04:33.557Z,12.60
2022-08-25T12:07:52.100Z,11.57
2022-08-25T12:11:10.881Z,16.98
2022-08-25T12:14:18.305Z,13.98
2022-08-25T12:17:28.239Z,15.75
2022-08-25T12:20:55.143Z,10.85
2022-08-25T12:24:03.084Z,14.90
2022-08-25T12:27:08.837Z,13.43
2022-08-25T12:33:49.792Z,16.50
2022-08-25T12:37:13.783Z,9.85
2022-08-25T12:40:34.903Z,11.82
2022-08-25T12:43:45.321Z,13.88
2022-08-25T12:46:51.290Z,11.75
2022-08-25T12:50:13.634Z,14.38
2022-08-25T12:53:38.537Z,11.55
2022-08-25T12:56:50.241Z,12.23
2022-08-25T13:00:01.128Z,9.25
2022-08-25T13:04:09.390Z,11.80
2022-08-25T13:07:23.246Z,10.48
2022-08-25T13:10:57.411Z,14.35
2022-08-25T13:14:22.466Z,10.85
2022-08-25T13:17:28.999Z,9.82
2022-08-25T13:20:30.980Z,9.98
2022-08-25T13:23:38.276Z,11.27
2022-08-25T13:26:48.175Z,11.07
2022-08-25T13:30:03.703Z,14.75
2022-08-25T13:33:20.732Z,14.47
2022-08-25T13:36:52.090Z,14.07
2022-08-25T13:40:18.741Z,11.00
2022-08-25T13:43:27.462Z,9.02
2022-08-25T13:46:35.551Z,11.48
2022-08-25T13:49:39.939Z,12.18
2022-08-25T13:52:45.168Z,11.35
2022-08-25T13:55:59.804Z,10.30
2022-08-25T13:59:03.866Z,14.20
2022-08-25T14:02:09.501Z,14.60
2022-08-25T14:05:42.655Z,9.85
2022-08-25T14:09:03.650Z,12.77
2022-08-25T14:12:07.576Z,12.07
2022-08-25T14:15:17.289Z,12.65
2022-08-25T14:18:26.987Z,10.63
2022-08-25T14:21:31.335Z,10.30
2022-08-25T14:24:40.933Z,17.75
2022-08-25T14:28:06.776Z,12.73
2022-08-25T14:31:17.947Z,12.30
2022-08-25T14:34:36.704Z,11.25
2022-08-25T14:37:38.498Z,11.63
2022-08-25T14:40:42.273Z,9.23
2022-08-25T14:43:44.390Z,11.48
2022-08-25T14:46:54.187Z,7.78
2022-08-25T14:49:55.865Z,9.93
2022-08-25T14:52:58.259Z,12.18
2022-08-25T14:56:01.400Z,13.18
2022-08-25T14:59:12.676Z,14.43
2022-08-25T15:02:19.885Z,12.82
2022-08-25T15:05:29.312Z,8.13
2022-08-25T15:08:50.893Z,11.68
2022-08-25T15:11:56.900Z,12.30
2022-08-25T15:14:58.572Z,9.27
2022-08-25T15:18:01.267Z,9.25
2022-08-25T15:21:03.502Z,9.82
2022-08-25T15:24:07.056Z,11.30
2022-08-25T15:27:20.439Z,9.00
2022-08-25T15:30:30.983Z,14.30
2022-08-25T15:33:36.065Z,12.73
2022-08-25T15:36:37.976Z,10.90
2022-08-25T15:39:41.974Z,13.40
2022-08-25T15:42:49.282Z,11.82
2022-08-25T15:45:51.588Z,10.20
2022-08-25T15:48:53.376Z,11.38
2022-08-25T15:51:56.681Z,11.85
2022-08-25T15:54:59.900Z,10.38
2022-08-25T15:58:04.933Z,10.52
2022-08-25T16:01:07.240Z,10.05
2022-08-25T16:04:12.119Z,9.77
2022-08-25T16:07:13.840Z,10.77
2022-08-25T16:10:17.748Z,17.77
2022-08-25T16:13:19.571Z,12.95
2022-08-25T16:16:25.506Z,13.23
2022-08-25T16:19:33.380Z,12.15
2022-08-25T16:22:39.829Z,13.10
2022-08-25T16:25:52.873Z,14.30
2022-08-25T16:28:59.909Z,10.23
2022-08-25T16:32:06.976Z,15.68
2022-08-25T16:35:11.002Z,9.32
2022-08-25T16:38:13.194Z,9.88
2022-08-25T16:41:22.625Z,11.75
2022-08-25T16:44:24.561Z,12.75
2022-08-25T16:47:28.614Z,12.30
2022-08-25T16:50:31.147Z,11.43
2022-08-25T16:53:54.851Z,11.18
2022-08-25T16:57:00.754Z,7.85
2022-08-25T17:00:04.784Z,9.98
2022-08-25T17:03:06.847Z,10.93
2022-08-25T17:06:08.797Z,8.95
2022-08-25T17:09:12.630Z,12.38
2022-08-25T17:12:16.906Z,8.98
2022-08-25T17:15:23.790Z,12.85
2022-08-25T17:18:25.866Z,10.48
2022-08-25T17:21:31.417Z,10.77
2022-08-25T17:24:33.872Z,9.55
2022-08-25T17:27:35.977Z,12.75
2022-08-25T17:30:39.064Z,10.98
2022-08-25T17:33:42.395Z,11.25
2022-08-25T17:36:44.212Z,11.63
2022-08-25T17:39:46.088Z,11.70
2022-08-25T17:42:48.054Z,12.63
2022-08-25T17:45:50.345Z,11.57
2022-08-25T17:48:55.317Z,12.02
2022-08-25T17:51:57.222Z,12.88
2022-08-25T17:54:59.053Z,9.18
2022-08-25T17:58:02.981Z,13.25
2022-08-25T18:01:05.580Z,13.32
2022-08-25T18:04:07.969Z,17.40
2022-08-25T18:07:19.688Z,9.52
2022-08-25T18:10:21.454Z,14.45
2022-08-25T18:13:23.948Z,11.10
2022-08-25T18:16:26.740Z,12.10
2022-08-25T18:19:28.502Z,11.75
2022-08-25T18:22:31.993Z,13.20
2022-08-25T18:25:34.754Z,10.35
2022-08-25T18:28:36.470Z,13.50
2022-08-25T18:31:38.257Z,14.38
2022-08-25T18:34:40.368Z,10.45
2022-08-25T18:38:00.769Z,15.00
2022-08-25T18:41:06.482Z,10.93
2022-08-25T18:44:10.634Z,10.73
2022-08-25T18:47:12.614Z,15.07
2022-08-25T18:50:15.301Z,10.75
2022-08-25T18:53:17.993Z,10.32
2022-08-25T18:56:33.376Z,10.82
2022-08-25T18:59:35.280Z,11.15
2022-08-25T19:02:37.076Z,11.80
2022-08-25T19:05:41.486Z,11.13
2022-08-25T19:08:46.970Z,11.65
2022-08-25T19:11:49.105Z,12.48
2022-08-25T19:14:51.065Z,10.35
2022-08-25T19:17:53.767Z,11.88
2022-08-25T19:20:55.451Z,14.18
2022-08-25T19:23:57.175Z,8.80
2022-08-25T19:27:02.324Z,12.10
2022-08-25T19:30:07.261Z,12.70
2022-08-25T19:33:11.527Z,13.05
2022-08-25T19:36:14.447Z,11.00
2022-08-25T19:39:16.447Z,11.73
2022-08-25T19:42:37.345Z,11.48
2022-08-25T19:45:40.913Z,14.25
2022-08-25T19:48:42.708Z,11.80
2022-08-25T19:51:51.142Z,12.25
2022-08-25T19:54:53.528Z,9.25
2022-08-25T19:57:55.376Z,10.52
2022-08-25T20:00:57.073Z,11.88
2022-08-25T20:03:58.805Z,14.77
2022-08-25T20:07:00.737Z,10.00
2022-08-25T20:10:05.953Z,10.23
2022-08-25T20:13:08.876Z,13.63
2022-08-25T20:16:10.909Z,10.30
2022-08-25T20:19:12.999Z,13.95
2022-08-25T20:22:18.684Z,12.93
2022-08-25T20:25:24.439Z,10.60
2022-08-25T20:28:26.265Z,12.70
2022-08-25T20:31:29.533Z,10.95
2022-08-25T20:34:31.649Z,11.95
2022-08-25T20:37:34.370Z,14.82
2022-08-25T20:40:36.264Z,11.13
2022-08-25T20:43:40.160Z,13.63
2022-08-25T20:46:41.830Z,12.95
2022-08-25T20:49:44.842Z,11.65
2022-08-25T20:52:46.507Z,11.93
2022-08-25T20:55:50.382Z,11.38
2022-08-25T20:58:52.188Z,13.45
2022-08-25T21:01:55.133Z,13.48
2022-08-25T21:04:57.614Z,11.32
2022-08-25T21:07:59.296Z,13.90
2022-08-25T21:11:00.902Z,11.30
2022-08-25T21:14:03.044Z,13.85
2022-08-25T21:17:10.554Z,9.88
2022-08-25T21:23:15.292Z,14.50
2022-08-25T21:26:19.608Z,13.02
2022-08-25T21:29:23.270Z,12.23
2022-08-25T21:32:25.853Z,14.02
2022-08-25T21:35:28.355Z,14.32
2022-08-25T21:38:31.526Z,11.02
2022-08-25T21:41:34.932Z,11.68
2022-08-25T21:44:38.620Z,12.23
2022-08-25T21:47:42.472Z,11.70
2022-08-25T21:50:44.386Z,14.30
2022-08-25T21:53:47.317Z,12.85
2022-08-25T21:56:50.981Z,12.32
2022-08-25T21:59:52.633Z,11.18
2022-08-25T22:02:54.477Z,11.90
2022-08-25T22:05:57.230Z,10.32
2022-08-25T22:08:58.888Z,11.35
2022-08-25T22:12:00.762Z,13.60
2022-08-25T22:15:05.976Z,12.38
2022-08-25T22:18:07.658Z,13.97
2022-08-25T22:21:09.776Z,12.23
2022-08-25T22:24:12.804Z,14.45
2022-08-25T22:27:15.523Z,12.48
2022-08-25T22:30:18.774Z,15.70
2022-08-25T22:33:20.393Z,12.68
2022-08-25T22:36:28.483Z,12.15
2022-08-25T22:39:30.974Z,11.70
2022-08-25T22:42:33.777Z,13.02
2022-08-25T22:45:35.909Z,12.52
2022-08-25T22:48:38.584Z,14.43
2022-08-25T22:51:40.341Z,11.63
2022-08-25T22:54:42.190Z,12.27
2022-08-25T22:57:44.026Z,11.10
2022-08-25T23:00:46.493Z,15.55
2022-08-25T23:03:48.626Z,17.05
2022-08-25T23:06:50.630Z,12.88
2022-08-25T23:09:53.038Z,12.90
2022-08-25T23:12:54.677Z,12.73
2022-08-25T23:15:56.287Z,14.55
2022-08-25T23:18:58.695Z,14.32
2022-08-25T23:22:10.601Z,12.75
2022-08-25T23:25:12.513Z,17.95
2022-08-25T23:28:15.300Z,13.95
2022-08-25T23:31:17.936Z,12.65
2022-08-25T23:34:19.587Z,13.20
2022-08-25T23:37:21.286Z,11.25
2022-08-25T23:40:23.014Z,13.05
2022-08-25T23:43:25.994Z,13.75
2022-08-25T23:46:29.562Z,12.93
2022-08-25T23:49:31.186Z,13.55
2022-08-25T23:52:33.381Z,14.93
2022-08-25T23:55:35.950Z,10.90
2022-08-25T23:58:37.620Z,11.93
